Time;durP1;ratioP1;P1;durP2;ratioP2;P2;SDS_P1;SDS_P2;PMS_P1;PMS_P2;Temp;Humidity;BMP_temperature;BMP_pressure;BME280_temperature;BME280_humidity;BME280_pressure;Samples;Min_cycle;Max_cycle;Signal;HPM_P1;HPM_P2
2022/03/12 00:00:35;;;;;;;;;23.50;23.00;;;;;;;;5228616;28;8815;-73
2022/03/12 00:03:08;;;;;;;;;24.25;23.25;;;;;;;;5212036;28;8951;-73
2022/03/12 00:06:02;;;;;;;;;21.50;21.00;;;;;;;;5228734;28;8811;-73
2022/03/12 00:08:51;;;;;;;;;21.50;21.50;;;;;;;;5211145;28;8809;-72
2022/03/12 00:11:24;;;;;;;;;20.00;18.00;;;;;;;;5212008;28;8792;-73
2022/03/12 00:13:59;;;;;;;;;18.75;17.50;;;;;;;;5211566;28;8799;-73
2022/03/12 00:16:31;;;;;;;;;18.25;18.25;;;;;;;;5228412;28;8860;-73
2022/03/12 00:19:04;;;;;;;;;24.25;22.00;;;;;;;;5211827;28;8820;-73
2022/03/12 00:21:42;;;;;;;;;12.75;12.00;;;;;;;;5211904;28;8780;-72
2022/03/12 00:24:15;;;;;;;;;20.25;19.25;;;;;;;;5211779;28;8919;-72
2022/03/12 00:26:48;;;;;;;;;25.50;25.50;;;;;;;;5228237;28;8876;-70
2022/03/12 00:29:20;;;;;;;;;34.25;29.50;;;;;;;;5227773;28;8809;-73
2022/03/12 00:31:54;;;;;;;;;23.75;22.25;;;;;;;;5228167;28;8795;-72
2022/03/12 00:34:25;;;;;;;;;18.75;18.75;;;;;;;;5211742;28;8799;-71
2022/03/12 00:36:57;;;;;;;;;29.00;28.75;;;;;;;;5211814;28;8865;-72
2022/03/12 00:39:28;;;;;;;;;24.50;24.50;;;;;;;;5211565;28;8939;-71
2022/03/12 00:42:18;;;;;;;;;21.50;17.50;;;;;;;;5245705;28;8780;-71
2022/03/12 00:44:48;;;;;;;;;21.33;21.33;;;;;;;;5211828;28;8784;-73
2022/03/12 00:47:19;;;;;;;;;21.50;21.50;;;;;;;;5212094;28;9503;-71
2022/03/12 00:49:50;;;;;;;;;23.67;21.67;;;;;;;;5245810;28;8816;-73
2022/03/12 00:52:22;;;;;;;;;23.25;22.50;;;;;;;;5227613;28;11460;-73
2022/03/12 00:54:53;;;;;;;;;14.25;14.25;;;;;;;;5211320;28;8777;-73
2022/03/12 00:57:24;;;;;;;;;19.50;19.50;;;;;;;;5228107;28;8819;-73
2022/03/12 00:59:56;;;;;;;;;18.00;18.00;;;;;;;;5227975;28;8825;-73
2022/03/12 01:02:46;;;;;;;;;23.75;20.00;;;;;;;;5230966;28;8811;-73
2022/03/12 01:05:21;;;;;;;;;24.75;23.50;;;;;;;;5228118;28;8776;-73
2022/03/12 01:07:52;;;;;;;;;27.50;27.00;;;;;;;;5194657;28;8835;-73
2022/03/12 01:10:24;;;;;;;;;30.50;28.50;;;;;;;;5211403;28;8780;-73
2022/03/12 01:12:55;;;;;;;;;28.00;25.75;;;;;;;;5211143;28;9555;-73
2022/03/12 01:15:45;;;;;;;;;30.25;30.00;;;;;;;;5230306;28;8792;-71
2022/03/12 01:18:17;;;;;;;;;26.25;26.25;;;;;;;;5227856;28;8816;-74
2022/03/12 01:20:49;;;;;;;;;35.00;33.75;;;;;;;;5212923;28;8803;-74
2022/03/12 01:23:22;;;;;;;;;45.00;41.25;;;;;;;;5214983;28;8777;-72
2022/03/12 01:25:54;;;;;;;;;35.00;31.50;;;;;;;;5214986;28;8797;-73
2022/03/12 01:28:25;;;;;;;;;35.50;33.00;;;;;;;;5231554;28;8805;-72
2022/03/12 01:30:58;;;;;;;;;32.50;30.50;;;;;;;;5214749;28;8781;-72
2022/03/12 01:33:30;;;;;;;;;16.00;16.00;;;;;;;;5248241;28;8773;-80
2022/03/12 01:36:01;;;;;;;;;21.25;21.25;;;;;;;;5231417;28;8769;-75
2022/03/12 01:38:40;;;;;;;;;21.75;21.25;;;;;;;;5214499;28;8816;-74
2022/03/12 01:41:11;;;;;;;;;26.00;25.00;;;;;;;;5231665;28;8788;-74
2022/03/12 01:43:43;;;;;;;;;21.50;21.50;;;;;;;;5231011;28;9635;-74
2022/03/12 01:46:15;;;;;;;;;24.00;23.50;;;;;;;;5231096;28;9499;-74
2022/03/12 01:48:50;;;;;;;;;23.00;20.25;;;;;;;;5214140;28;8920;-73
2022/03/12 01:51:22;;;;;;;;;24.00;24.00;;;;;;;;5214663;28;8789;-73
2022/03/12 01:53:53;;;;;;;;;24.25;23.50;;;;;;;;5214529;28;8773;-73
2022/03/12 01:56:27;;;;;;;;;29.00;27.50;;;;;;;;5230890;28;8787;-72
2022/03/12 01:58:59;;;;;;;;;39.25;39.25;;;;;;;;5230429;28;8816;-72
2022/03/12 02:01:51;;;;;;;;;27.50;26.25;;;;;;;;5216780;28;8800;-72
2022/03/12 02:04:23;;;;;;;;;30.50;28.50;;;;;;;;5248284;28;8788;-75
2022/03/12 02:06:54;;;;;;;;;33.75;32.75;;;;;;;;5214297;28;8785;-73
2022/03/12 02:09:44;;;;;;;;;31.00;31.00;;;;;;;;5230090;28;8804;-74
2022/03/12 02:12:15;;;;;;;;;39.50;38.00;;;;;;;;5248593;28;8792;-75
2022/03/12 02:14:46;;;;;;;;;28.00;27.50;;;;;;;;5230742;28;8792;-74
2022/03/12 02:17:17;;;;;;;;;48.00;45.00;;;;;;;;5230552;28;8796;-74
2022/03/12 02:19:48;;;;;;;;;46.33;43.00;;;;;;;;5213602;28;11664;-74
2022/03/12 02:22:19;;;;;;;;;51.25;47.25;;;;;;;;5229803;28;10559;-74
2022/03/12 02:24:52;;;;;;;;;55.75;49.50;;;;;;;;5230641;28;8780;-75
2022/03/12 02:27:41;;;;;;;;;68.00;52.50;;;;;;;;5248301;28;9543;-74
2022/03/12 02:30:12;;;;;;;;;59.50;49.75;;;;;;;;5213712;28;8854;-77
2022/03/12 02:32:44;;;;;;;;;43.33;41.33;;;;;;;;5246708;28;8796;-75
2022/03/12 02:35:24;;;;;;;;;37.00;37.00;;;;;;;;5214145;28;11350;-77
2022/03/12 02:37:57;;;;;;;;;57.25;47.50;;;;;;;;5213723;28;9531;-76
2022/03/12 02:40:28;;;;;;;;;39.25;37.50;;;;;;;;5213978;28;9534;-75
2022/03/12 02:43:01;;;;;;;;;56.00;48.00;;;;;;;;5246630;28;9547;-75
2022/03/12 02:45:34;;;;;;;;;43.75;42.00;;;;;;;;5213743;28;8777;-74
2022/03/12 02:48:09;;;;;;;;;39.50;37.50;;;;;;;;5196828;28;8809;-74
2022/03/12 02:50:43;;;;;;;;;31.25;30.75;;;;;;;;5229903;28;8781;-74
2022/03/12 02:53:14;;;;;;;;;20.25;19.00;;;;;;;;5229771;28;8779;-74
2022/03/12 02:55:45;;;;;;;;;19.50;18.50;;;;;;;;5213540;28;8802;-73
2022/03/12 02:58:17;;;;;;;;;18.75;18.75;;;;;;;;5212723;28;8812;-74
2022/03/12 03:01:06;;;;;;;;;18.25;17.50;;;;;;;;5229163;28;8809;-73
2022/03/12 03:03:39;;;;;;;;;20.50;20.00;;;;;;;;5212434;28;8825;-74
2022/03/12 03:06:15;;;;;;;;;15.50;15.25;;;;;;;;5213049;28;8784;-74
2022/03/12 03:08:46;;;;;;;;;20.75;20.75;;;;;;;;5212715;28;8793;-73
2022/03/12 03:11:18;;;;;;;;;16.75;16.50;;;;;;;;5229489;28;8797;-73
2022/03/12 03:13:50;;;;;;;;;26.25;26.25;;;;;;;;5246331;28;8795;-73
2022/03/12 03:16:21;;;;;;;;;33.75;31.50;;;;;;;;5212754;28;8860;-74
2022/03/12 03:18:53;;;;;;;;;27.75;27.75;;;;;;;;5229242;28;8812;-72
2022/03/12 03:21:26;;;;;;;;;28.00;25.50;;;;;;;;5212519;28;8799;-74
2022/03/12 03:23:57;;;;;;;;;23.00;23.00;;;;;;;;5229682;28;9524;-75
2022/03/12 03:26:40;;;;;;;;;23.25;22.25;;;;;;;;5212215;28;8777;-75
2022/03/12 03:29:13;;;;;;;;;15.75;14.50;;;;;;;;5212891;28;8808;-74
2022/03/12 03:31:46;;;;;;;;;12.50;12.50;;;;;;;;5228907;28;8791;-74
2022/03/12 03:34:18;;;;;;;;;17.50;16.75;;;;;;;;5212352;28;8935;-73
2022/03/12 03:36:51;;;;;;;;;18.00;17.75;;;;;;;;5212330;28;8800;-73
2022/03/12 03:39:22;;;;;;;;;17.75;17.75;;;;;;;;5212045;28;8832;-74
2022/03/12 03:41:53;;;;;;;;;19.25;19.25;;;;;;;;5245365;28;8781;-73
2022/03/12 03:44:29;;;;;;;;;18.00;17.50;;;;;;;;5212056;28;8784;-74
2022/03/12 03:47:00;;;;;;;;;26.50;23.00;;;;;;;;5228768;28;8804;-72
2022/03/12 03:49:31;;;;;;;;;39.00;36.00;;;;;;;;5195493;28;8785;-73
2022/03/12 03:52:02;;;;;;;;;41.33;39.00;;;;;;;;5212336;28;8781;-72
2022/03/12 03:54:34;;;;;;;;;31.00;30.25;;;;;;;;5228622;28;11753;-73
2022/03/12 03:57:05;;;;;;;;;35.50;31.50;;;;;;;;5195777;28;9484;-73
2022/03/12 03:59:37;;;;;;;;;41.00;38.25;;;;;;;;5195398;28;8898;-71
2022/03/12 04:02:09;;;;;;;;;48.50;47.00;;;;;;;;5228206;28;8848;-71
2022/03/12 04:04:42;;;;;;;;;45.25;43.00;;;;;;;;5212499;28;8796;-71
2022/03/12 04:07:32;;;;;;;;;44.50;42.50;;;;;;;;5246158;28;8808;-71
2022/03/12 04:10:03;;;;;;;;;60.25;49.50;;;;;;;;5211743;28;8805;-71
2022/03/12 04:12:37;;;;;;;;;46.33;36.67;;;;;;;;5228295;28;8805;-71
2022/03/12 04:15:09;;;;;;;;;40.25;38.25;;;;;;;;5211871;28;8891;-71
2022/03/12 04:17:41;;;;;;;;;52.50;49.00;;;;;;;;5228339;28;8858;-71
2022/03/12 04:20:16;;;;;;;;;46.67;44.33;;;;;;;;5211418;28;8824;-72
2022/03/12 04:22:49;;;;;;;;;57.00;50.67;;;;;;;;5211595;28;8886;-72
2022/03/12 04:25:20;;;;;;;;;36.25;34.50;;;;;;;;5211337;28;9874;-72
2022/03/12 04:27:51;;;;;;;;;31.25;29.50;;;;;;;;5228087;28;8911;-72
2022/03/12 04:30:41;;;;;;;;;29.00;26.00;;;;;;;;5214420;28;8765;-73
2022/03/12 04:33:32;;;;;;;;;26.50;26.00;;;;;;;;5245951;28;9569;-73
2022/03/12 04:36:03;;;;;;;;;29.25;27.75;;;;;;;;5211567;28;8859;-72
2022/03/12 04:38:35;;;;;;;;;27.75;24.50;;;;;;;;5227718;28;8820;-74
2022/03/12 04:41:08;;;;;;;;;41.75;38.00;;;;;;;;5211615;28;8773;-74
2022/03/12 04:43:39;;;;;;;;;46.00;42.50;;;;;;;;5211615;28;8838;-74
2022/03/12 04:46:10;;;;;;;;;45.25;43.00;;;;;;;;5211041;28;8809;-73
2022/03/12 04:48:41;;;;;;;;;42.00;37.50;;;;;;;;5228094;28;8960;-74
2022/03/12 04:51:15;;;;;;;;;28.25;28.25;;;;;;;;5227943;28;9538;-74
2022/03/12 04:53:47;;;;;;;;;29.25;27.75;;;;;;;;5210901;28;8801;-76
2022/03/12 04:56:18;;;;;;;;;24.00;23.00;;;;;;;;5230464;28;8801;-74
2022/03/12 04:58:49;;;;;;;;;23.50;23.50;;;;;;;;5232318;28;8831;-72
2022/03/12 05:01:21;;;;;;;;;24.50;22.25;;;;;;;;5227602;28;9002;-73
2022/03/12 05:03:52;;;;;;;;;29.75;27.00;;;;;;;;5228016;28;8790;-67
2022/03/12 05:06:25;;;;;;;;;22.00;21.00;;;;;;;;5210949;28;8778;-70
2022/03/12 05:08:57;;;;;;;;;26.00;25.50;;;;;;;;5227764;28;8987;-70
2022/03/12 05:11:32;;;;;;;;;14.00;14.00;;;;;;;;5224583;28;8817;-71
2022/03/12 05:14:04;;;;;;;;;24.75;24.75;;;;;;;;5209674;28;8932;-70
2022/03/12 05:16:36;;;;;;;;;23.00;21.50;;;;;;;;5209756;28;8912;-71
2022/03/12 05:19:07;;;;;;;;;26.00;25.00;;;;;;;;5226557;28;8849;-71
2022/03/12 05:21:40;;;;;;;;;22.75;21.75;;;;;;;;5225681;28;8789;-70
2022/03/12 05:24:13;;;;;;;;;16.80;16.80;;;;;;;;5225941;28;8805;-70
2022/03/12 05:26:45;;;;;;;;;19.00;19.00;;;;;;;;5209038;28;8932;-70
2022/03/12 05:29:17;;;;;;;;;22.60;21.80;;;;;;;;5242461;28;8817;-70
2022/03/12 05:31:52;;;;;;;;;21.50;21.50;;;;;;;;5192731;28;8802;-71
2022/03/12 05:34:23;;;;;;;;;31.00;30.00;;;;;;;;5225475;28;8790;-71
2022/03/12 05:36:54;;;;;;;;;37.00;36.75;;;;;;;;5208936;28;8944;-72
2022/03/12 05:39:25;;;;;;;;;63.75;52.50;;;;;;;;5208848;28;8859;-70
2022/03/12 05:41:57;;;;;;;;;67.50;54.25;;;;;;;;5207181;28;8805;-72
2022/03/12 05:44:30;;;;;;;;;44.75;44.50;;;;;;;;5210235;28;9542;-70
2022/03/12 05:47:06;;;;;;;;;43.50;42.50;;;;;;;;5226682;28;8882;-69
2022/03/12 05:49:37;;;;;;;;;44.75;40.50;;;;;;;;5227440;28;8859;-72
2022/03/12 05:52:10;;;;;;;;;25.00;25.00;;;;;;;;5210419;28;8785;-70
2022/03/12 05:55:00;;;;;;;;;23.40;23.40;;;;;;;;5213124;28;8801;-72
2022/03/12 05:57:37;;;;;;;;;25.60;25.60;;;;;;;;5226890;28;8781;-72
2022/03/12 06:00:11;;;;;;;;;22.00;19.60;;;;;;;;5210289;28;8966;-70
2022/03/12 06:02:52;;;;;;;;;23.20;23.20;;;;;;;;5226296;28;8832;-70
2022/03/12 06:05:43;;;;;;;;;24.00;24.00;;;;;;;;5227405;28;8765;-70
2022/03/12 06:08:16;;;;;;;;;23.20;23.20;;;;;;;;5226689;28;8805;-71
2022/03/12 06:11:06;;;;;;;;;25.80;25.80;;;;;;;;5226518;28;8816;-71
2022/03/12 06:13:37;;;;;;;;;24.20;24.20;;;;;;;;5226435;28;8782;-71
2022/03/12 06:16:08;;;;;;;;;37.00;37.00;;;;;;;;5209882;28;8813;-70
2022/03/12 06:18:40;;;;;;;;;45.00;44.00;;;;;;;;5209759;28;8813;-71
2022/03/12 06:21:11;;;;;;;;;45.25;44.00;;;;;;;;5209608;28;8924;-71
2022/03/12 06:23:43;;;;;;;;;57.25;49.50;;;;;;;;5226038;28;8790;-72
2022/03/12 06:26:14;;;;;;;;;42.60;38.60;;;;;;;;5209720;28;9542;-70
2022/03/12 06:28:45;;;;;;;;;28.00;26.40;;;;;;;;5209732;28;8882;-70
2022/03/12 06:31:17;;;;;;;;;32.40;31.20;;;;;;;;5209484;28;8900;-71
2022/03/12 06:33:49;;;;;;;;;42.60;37.80;;;;;;;;5225612;28;9691;-71
2022/03/12 06:36:22;;;;;;;;;29.60;27.20;;;;;;;;5242283;28;9606;-71
2022/03/12 06:38:53;;;;;;;;;28.00;26.80;;;;;;;;5209807;28;9550;-72
2022/03/12 06:41:25;;;;;;;;;22.40;21.20;;;;;;;;5225765;28;8995;-71
2022/03/12 06:43:57;;;;;;;;;30.00;30.00;;;;;;;;5225856;28;8785;-71
2022/03/12 06:46:28;;;;;;;;;34.00;31.00;;;;;;;;5209147;28;8844;-69
2022/03/12 06:48:59;;;;;;;;;32.20;30.80;;;;;;;;5226047;28;8801;-71
2022/03/12 06:51:30;;;;;;;;;31.00;30.00;;;;;;;;5209420;28;8797;-70
2022/03/12 06:54:04;;;;;;;;;28.80;28.80;;;;;;;;5209107;28;8790;-70
2022/03/12 06:56:39;;;;;;;;;24.60;22.80;;;;;;;;5225576;28;8793;-70
2022/03/12 06:59:10;;;;;;;;;32.00;29.60;;;;;;;;5225335;28;8824;-69
2022/03/12 07:01:59;;;;;;;;;30.60;29.60;;;;;;;;5221975;28;8819;-70
2022/03/12 07:04:31;;;;;;;;;37.20;36.40;;;;;;;;5188587;28;8789;-70
2022/03/12 07:07:02;;;;;;;;;52.80;47.60;;;;;;;;5188734;28;8791;-69
2022/03/12 07:09:34;;;;;;;;;44.80;42.00;;;;;;;;5198569;28;8833;-71
2022/03/12 07:12:06;;;;;;;;;41.00;37.80;;;;;;;;5225366;28;8982;-71
2022/03/12 07:14:38;;;;;;;;;33.20;30.60;;;;;;;;5225036;28;8813;-71
2022/03/12 07:17:09;;;;;;;;;33.80;33.40;;;;;;;;5208600;28;8922;-70
2022/03/12 07:19:40;;;;;;;;;37.00;33.40;;;;;;;;5207882;28;8844;-70
2022/03/12 07:22:11;;;;;;;;;28.80;27.00;;;;;;;;5208222;28;8949;-71
2022/03/12 07:24:45;;;;;;;;;15.40;13.40;;;;;;;;5225341;28;8928;-70
2022/03/12 07:27:17;;;;;;;;;33.00;30.80;;;;;;;;5225431;28;8802;-71
2022/03/12 07:29:48;;;;;;;;;32.00;29.40;;;;;;;;5207954;28;8822;-70
2022/03/12 07:32:20;;;;;;;;;31.80;30.20;;;;;;;;5208291;28;8826;-72
2022/03/12 07:34:51;;;;;;;;;30.60;30.40;;;;;;;;5208084;28;8924;-70
2022/03/12 07:37:23;;;;;;;;;28.80;26.20;;;;;;;;5208824;28;8826;-71
2022/03/12 07:39:55;;;;;;;;;17.40;17.40;;;;;;;;5208138;28;8818;-73
2022/03/12 07:42:26;;;;;;;;;12.60;12.60;;;;;;;;5224928;28;8777;-71
2022/03/12 07:44:58;;;;;;;;;9.60;9.60;;;;;;;;5224274;28;8849;-71
2022/03/12 07:47:29;;;;;;;;;17.20;16.60;;;;;;;;5224593;28;8918;-70
2022/03/12 07:50:05;;;;;;;;;23.80;19.60;;;;;;;;5224399;28;8948;-71
2022/03/12 07:52:37;;;;;;;;;23.20;22.60;;;;;;;;5224475;28;8932;-70
2022/03/12 07:55:10;;;;;;;;;12.60;12.20;;;;;;;;5208139;28;9681;-70
2022/03/12 07:57:42;;;;;;;;;15.40;15.20;;;;;;;;5224660;28;8788;-70
2022/03/12 08:00:13;;;;;;;;;20.80;20.80;;;;;;;;5207515;28;8960;-70
2022/03/12 08:02:49;;;;;;;;;22.60;22.60;;;;;;;;5224903;28;8810;-70
2022/03/12 08:05:23;;;;;;;;;29.00;26.60;;;;;;;;5207626;28;8786;-70
2022/03/12 08:07:54;;;;;;;;;23.80;23.80;;;;;;;;5240966;28;8809;-70
2022/03/12 08:10:25;;;;;;;;;20.60;19.80;;;;;;;;5206952;28;8835;-69
2022/03/12 08:12:58;;;;;;;;;10.75;8.50;;;;;;;;5224346;28;8774;-70
2022/03/12 08:15:29;;;;;;;;;12.80;12.80;;;;;;;;5207655;28;11566;-70
2022/03/12 08:18:00;;;;;;;;;17.50;17.50;;;;;;;;5207928;28;8920;-70
2022/03/12 08:20:31;;;;;;;;;15.75;15.75;;;;;;;;5207069;28;8818;-71
2022/03/12 08:23:02;;;;;;;;;6.20;6.20;;;;;;;;5207460;28;8782;-70
2022/03/12 08:25:32;;;;;;;;;15.25;15.25;;;;;;;;5224709;28;8774;-70
2022/03/12 08:28:04;;;;;;;;;30.50;29.25;;;;;;;;5207041;28;11601;-70
2022/03/12 08:30:36;;;;;;;;;24.00;23.20;;;;;;;;5223999;28;8793;-70
2022/03/12 08:33:10;;;;;;;;;14.20;14.20;;;;;;;;5223996;28;8781;-70
2022/03/12 08:35:40;;;;;;;;;18.20;18.20;;;;;;;;5224225;28;9391;-70
2022/03/12 08:38:11;;;;;;;;;20.00;20.00;;;;;;;;5240699;28;8809;-69
2022/03/12 08:40:42;;;;;;;;;26.25;22.25;;;;;;;;5223859;28;9594;-70
2022/03/12 08:43:13;;;;;;;;;57.25;49.75;;;;;;;;5207128;28;11525;-71
2022/03/12 08:45:44;;;;;;;;;42.20;39.80;;;;;;;;5207054;28;8786;-71
2022/03/12 08:48:16;;;;;;;;;41.80;40.80;;;;;;;;5223497;28;8797;-72
2022/03/12 08:50:47;;;;;;;;;28.20;27.40;;;;;;;;5223838;28;8790;-72
2022/03/12 08:53:18;;;;;;;;;21.50;21.50;;;;;;;;5207376;28;9537;-72
2022/03/12 08:55:49;;;;;;;;;21.80;21.80;;;;;;;;5223538;28;10529;-72
2022/03/12 08:58:21;;;;;;;;;24.00;22.20;;;;;;;;5224419;28;8770;-71
2022/03/12 09:00:53;;;;;;;;;15.20;15.00;;;;;;;;5223513;28;8810;-72
2022/03/12 09:03:25;;;;;;;;;17.80;15.80;;;;;;;;5224925;28;9512;-71
2022/03/12 09:05:56;;;;;;;;;24.80;24.40;;;;;;;;5207346;28;8789;-72
2022/03/12 09:08:27;;;;;;;;;19.25;19.25;;;;;;;;5223091;28;8860;-72
2022/03/12 09:10:59;;;;;;;;;13.80;13.80;;;;;;;;5223099;28;10128;-72
2022/03/12 09:13:30;;;;;;;;;18.60;18.00;;;;;;;;5206391;28;9570;-73
2022/03/12 09:16:01;;;;;;;;;18.25;17.50;;;;;;;;5186138;28;8800;-73
2022/03/12 09:18:31;;;;;;;;;18.75;18.75;;;;;;;;5185993;28;8899;-72
2022/03/12 09:21:02;;;;;;;;;20.50;19.00;;;;;;;;5190429;28;8781;-73
2022/03/12 09:23:34;;;;;;;;;32.80;28.40;;;;;;;;5207291;28;11485;-72
2022/03/12 09:26:05;;;;;;;;;32.40;30.80;;;;;;;;5206536;28;8833;-72
2022/03/12 09:28:36;;;;;;;;;18.00;16.80;;;;;;;;5223050;28;8867;-72
2022/03/12 09:31:09;;;;;;;;;27.25;25.50;;;;;;;;5206574;28;8809;-71
2022/03/12 09:34:00;;;;;;;;;28.40;27.40;;;;;;;;5223273;28;9902;-70
2022/03/12 09:36:31;;;;;;;;;22.20;22.20;;;;;;;;5224107;28;8821;-72
2022/03/12 09:39:03;;;;;;;;;26.00;24.80;;;;;;;;5205818;28;8817;-71
2022/03/12 09:41:34;;;;;;;;;26.60;26.20;;;;;;;;5223941;28;8801;-72
2022/03/12 09:44:06;;;;;;;;;27.60;26.20;;;;;;;;5226909;28;8821;-71
2022/03/12 09:46:37;;;;;;;;;26.80;25.60;;;;;;;;5210364;28;8802;-72
2022/03/12 09:49:11;;;;;;;;;22.00;21.20;;;;;;;;5210077;28;8802;-70
2022/03/12 09:51:45;;;;;;;;;28.00;26.20;;;;;;;;5210333;28;8782;-70
2022/03/12 09:54:34;;;;;;;;;25.00;23.40;;;;;;;;5225627;28;8809;-70
2022/03/12 09:57:05;;;;;;;;;34.75;32.25;;;;;;;;5226501;28;8805;-72
2022/03/12 09:59:36;;;;;;;;;25.20;21.80;;;;;;;;5210806;28;10959;-70
2022/03/12 10:02:08;;;;;;;;;25.80;24.40;;;;;;;;5214451;28;8819;-70
2022/03/12 10:04:39;;;;;;;;;27.50;24.50;;;;;;;;5213635;28;8793;-70
2022/03/12 10:07:10;;;;;;;;;32.50;31.25;;;;;;;;5197728;28;8777;-70
2022/03/12 10:09:44;;;;;;;;;26.40;22.20;;;;;;;;5182967;28;9612;-71
2022/03/12 10:12:15;;;;;;;;;21.00;18.75;;;;;;;;5230216;28;8918;-72
2022/03/12 10:14:49;;;;;;;;;20.20;19.20;;;;;;;;5213449;28;11602;-71
2022/03/12 10:17:21;;;;;;;;;22.40;22.40;;;;;;;;5247104;28;8865;-70
2022/03/12 10:19:51;;;;;;;;;18.80;18.60;;;;;;;;5197061;28;8816;-69
2022/03/12 10:22:23;;;;;;;;;17.00;17.00;;;;;;;;5246878;28;8841;-69
2022/03/12 10:24:54;;;;;;;;;25.60;25.00;;;;;;;;5213452;28;12137;-71
2022/03/12 10:27:25;;;;;;;;;21.50;21.50;;;;;;;;5230066;28;8769;-71
2022/03/12 10:29:56;;;;;;;;;22.75;22.75;;;;;;;;5212747;28;11696;-70
2022/03/12 10:32:28;;;;;;;;;32.60;29.00;;;;;;;;5213550;28;9683;-70
2022/03/12 10:35:01;;;;;;;;;24.00;23.40;;;;;;;;5196969;28;8815;-71
2022/03/12 10:37:34;;;;;;;;;21.40;19.20;;;;;;;;5213605;28;8776;-70
2022/03/12 10:40:10;;;;;;;;;14.40;12.80;;;;;;;;5247470;28;8817;-70
2022/03/12 10:43:04;;;;;;;;;14.20;12.60;;;;;;;;5213511;28;8780;-69
2022/03/12 10:45:47;;;;;;;;;15.20;14.40;;;;;;;;5213518;28;8785;-70
2022/03/12 10:48:20;;;;;;;;;21.20;20.20;;;;;;;;5252945;28;8827;-69
2022/03/12 10:50:52;;;;;;;;;18.60;18.60;;;;;;;;5192804;28;8802;-69
2022/03/12 10:53:41;;;;;;;;;31.80;28.20;;;;;;;;5204500;28;8793;-69
2022/03/12 10:56:12;;;;;;;;;27.40;26.80;;;;;;;;5222129;28;8866;-71
2022/03/12 10:58:43;;;;;;;;;20.80;20.80;;;;;;;;5229337;28;8834;-71
2022/03/12 11:01:22;;;;;;;;;29.60;27.20;;;;;;;;5212751;28;8808;-71
2022/03/12 11:03:54;;;;;;;;;21.60;20.40;;;;;;;;5212817;28;8757;-70
2022/03/12 11:06:26;;;;;;;;;16.40;15.80;;;;;;;;5212909;28;8769;-71
2022/03/12 11:08:57;;;;;;;;;28.60;24.60;;;;;;;;5212665;28;8827;-71
2022/03/12 11:11:29;;;;;;;;;15.25;15.25;;;;;;;;5212542;28;8768;-71
2022/03/12 11:14:02;;;;;;;;;28.80;27.60;;;;;;;;5212853;28;8776;-71
2022/03/12 11:16:35;;;;;;;;;15.00;15.00;;;;;;;;5212484;28;8789;-70
2022/03/12 11:19:12;;;;;;;;;12.60;11.00;;;;;;;;5212487;28;8812;-70
2022/03/12 11:21:52;;;;;;;;;16.40;16.00;;;;;;;;5228830;28;8920;-70
2022/03/12 11:24:26;;;;;;;;;13.20;13.20;;;;;;;;5212668;28;8789;-70
2022/03/12 11:26:58;;;;;;;;;13.40;12.60;;;;;;;;5245978;28;9551;-70
2022/03/12 11:29:30;;;;;;;;;13.00;13.00;;;;;;;;5212232;28;8838;-70
2022/03/12 11:32:05;;;;;;;;;16.00;15.20;;;;;;;;5195949;28;8781;-70
2022/03/12 11:34:40;;;;;;;;;11.60;11.60;;;;;;;;5246989;28;9508;-70
2022/03/12 11:37:13;;;;;;;;;5.80;5.80;;;;;;;;5212273;28;8797;-70
2022/03/12 11:39:51;;;;;;;;;14.80;14.40;;;;;;;;5212759;28;8828;-69
2022/03/12 11:42:30;;;;;;;;;16.60;16.60;;;;;;;;5195908;28;8784;-70
2022/03/12 11:45:09;;;;;;;;;38.80;35.00;;;;;;;;5196219;28;8822;-70
2022/03/12 11:47:41;;;;;;;;;24.80;24.00;;;;;;;;5212587;28;8915;-71
2022/03/12 11:50:15;;;;;;;;;58.20;49.20;;;;;;;;5211884;28;8777;-70
2022/03/12 11:53:04;;;;;;;;;29.80;27.80;;;;;;;;5246437;28;9511;-69
2022/03/12 11:55:35;;;;;;;;;26.50;24.50;;;;;;;;5212034;28;8772;-69
2022/03/12 11:58:05;;;;;;;;;16.75;16.25;;;;;;;;5213354;28;8854;-70
2022/03/12 12:00:54;;;;;;;;;14.40;14.40;;;;;;;;5230762;28;8834;-70
2022/03/12 12:03:25;;;;;;;;;14.50;14.50;;;;;;;;5245141;28;8783;-70
2022/03/12 12:05:56;;;;;;;;;11.50;10.00;;;;;;;;5240243;28;8791;-69
2022/03/12 12:08:28;;;;;;;;;17.20;16.40;;;;;;;;5210845;28;10914;-70
2022/03/12 12:11:01;;;;;;;;;18.20;18.20;;;;;;;;5224386;28;8805;-70
2022/03/12 12:13:44;;;;;;;;;12.40;12.00;;;;;;;;5224262;28;8957;-70
2022/03/12 12:16:25;;;;;;;;;22.60;21.40;;;;;;;;5209037;28;8831;-69
2022/03/12 12:19:21;;;;;;;;;25.20;23.80;;;;;;;;5224198;28;8886;-69
2022/03/12 12:22:09;;;;;;;;;22.80;19.60;;;;;;;;5209673;28;8809;-69
2022/03/12 12:24:43;;;;;;;;;22.00;21.50;;;;;;;;5207649;28;8802;-69
2022/03/12 12:27:19;;;;;;;;;33.00;31.20;;;;;;;;5224043;28;8790;-69
2022/03/12 12:29:56;;;;;;;;;28.00;25.20;;;;;;;;5224267;28;8806;-69
2022/03/12 12:32:44;;;;;;;;;20.20;18.40;;;;;;;;5208937;28;8825;-68
2022/03/12 12:35:42;;;;;;;;;10.80;10.80;;;;;;;;5224282;28;8932;-70
2022/03/12 12:38:14;;;;;;;;;18.00;17.40;;;;;;;;5223914;28;8785;-69
2022/03/12 12:40:47;;;;;;;;;14.40;14.20;;;;;;;;5207155;28;8588;-69
2022/03/12 12:43:32;;;;;;;;;23.80;22.40;;;;;;;;5208782;28;8781;-69
2022/03/12 12:46:08;;;;;;;;;21.80;20.00;;;;;;;;5191024;28;8774;-69
2022/03/12 12:49:01;;;;;;;;;26.40;26.40;;;;;;;;5209890;28;8770;-69
2022/03/12 12:51:58;;;;;;;;;30.20;27.20;;;;;;;;5193348;28;8819;-70
2022/03/12 12:54:49;;;;;;;;;24.00;24.00;;;;;;;;5207438;28;8806;-70
2022/03/12 12:57:20;;;;;;;;;30.00;30.00;;;;;;;;5223408;28;8758;-69
2022/03/12 13:00:32;;;;;;;;;25.80;25.80;;;;;;;;5223829;28;8841;-70
2022/03/12 13:03:16;;;;;;;;;13.20;13.20;;;;;;;;5206566;28;8863;-70
2022/03/12 13:05:49;;;;;;;;;14.40;14.40;;;;;;;;5203601;28;9572;-70
2022/03/12 13:08:39;;;;;;;;;25.40;25.20;;;;;;;;5222157;28;8797;-71
2022/03/12 13:11:31;;;;;;;;;21.60;21.60;;;;;;;;5221282;28;8801;-70
2022/03/12 13:14:11;;;;;;;;;26.60;25.40;;;;;;;;5204886;28;8883;-69
2022/03/12 13:17:00;;;;;;;;;31.60;30.20;;;;;;;;5207061;28;8890;-69
2022/03/12 13:19:32;;;;;;;;;38.60;37.60;;;;;;;;5225561;28;8848;-70
2022/03/12 13:22:08;;;;;;;;;44.20;41.00;;;;;;;;5209051;28;8810;-70
2022/03/12 13:24:43;;;;;;;;;42.20;41.40;;;;;;;;5225215;28;8817;-69
2022/03/12 13:27:33;;;;;;;;;44.40;43.20;;;;;;;;5208687;28;8887;-69
2022/03/12 13:30:09;;;;;;;;;34.40;33.80;;;;;;;;5208809;28;8855;-69
2022/03/12 13:32:41;;;;;;;;;34.80;32.80;;;;;;;;5209124;28;8781;-69
2022/03/12 13:35:14;;;;;;;;;45.80;44.20;;;;;;;;5225249;28;8810;-71
2022/03/12 13:37:46;;;;;;;;;36.20;35.60;;;;;;;;5215262;28;8791;-70
2022/03/12 13:40:20;;;;;;;;;36.40;32.80;;;;;;;;5226456;28;8839;-69
2022/03/12 13:42:58;;;;;;;;;65.40;52.40;;;;;;;;5210569;28;8816;-70
2022/03/12 13:45:32;;;;;;;;;60.20;52.00;;;;;;;;5224838;28;9574;-72
2022/03/12 13:48:03;;;;;;;;;66.80;54.60;;;;;;;;5208566;28;8836;-71
2022/03/12 13:50:34;;;;;;;;;54.60;47.00;;;;;;;;5208837;28;9625;-71
2022/03/12 13:53:05;;;;;;;;;58.00;46.80;;;;;;;;5208484;28;8919;-71
2022/03/12 13:55:36;;;;;;;;;66.50;53.50;;;;;;;;5208735;28;8797;-71
2022/03/12 13:58:07;;;;;;;;;67.00;50.00;;;;;;;;5208281;28;11524;-71
2022/03/12 14:00:39;;;;;;;;;46.00;42.60;;;;;;;;5241651;28;8840;-69
2022/03/12 14:03:11;;;;;;;;;36.00;33.00;;;;;;;;5208157;28;8808;-69
2022/03/12 14:05:42;;;;;;;;;44.20;41.80;;;;;;;;5224919;28;8794;-69
2022/03/12 14:08:19;;;;;;;;;45.80;43.80;;;;;;;;5241550;28;8790;-69
2022/03/12 14:10:50;;;;;;;;;21.20;21.20;;;;;;;;5208596;28;8774;-70
2022/03/12 14:13:21;;;;;;;;;46.40;44.00;;;;;;;;5206210;28;8806;-68
2022/03/12 14:15:54;;;;;;;;;44.50;42.25;;;;;;;;5205285;28;8873;-69
2022/03/12 14:18:27;;;;;;;;;48.00;45.60;;;;;;;;5207412;28;8831;-69
2022/03/12 14:21:00;;;;;;;;;71.40;58.40;;;;;;;;5208229;28;8797;-69
2022/03/12 14:23:49;;;;;;;;;64.00;55.40;;;;;;;;5212199;28;8790;-69
2022/03/12 14:26:58;;;;;;;;;71.80;57.80;;;;;;;;5212077;28;8812;-70
2022/03/12 14:29:32;;;;;;;;;53.20;48.00;;;;;;;;5225879;28;8836;-69
2022/03/12 14:32:05;;;;;;;;;60.60;52.20;;;;;;;;5209609;28;8880;-69
2022/03/12 14:34:37;;;;;;;;;73.20;61.20;;;;;;;;5209530;28;9576;-68
2022/03/12 14:37:26;;;;;;;;;80.50;65.25;;;;;;;;5212687;28;8812;-69
2022/03/12 14:39:58;;;;;;;;;77.00;63.67;;;;;;;;5209940;28;8798;-69
2022/03/12 14:42:29;;;;;;;;;64.50;56.50;;;;;;;;5226362;28;8780;-70
2022/03/12 14:45:00;;;;;;;;;71.00;60.75;;;;;;;;5226411;28;8806;-71
2022/03/12 14:47:32;;;;;;;;;77.00;62.75;;;;;;;;5210006;28;8782;-69
2022/03/12 14:50:07;;;;;;;;;88.25;69.00;;;;;;;;5208985;28;8908;-70
2022/03/12 14:52:38;;;;;;;;;92.50;71.75;;;;;;;;5209603;28;8777;-69
2022/03/12 14:55:11;;;;;;;;;93.25;72.00;;;;;;;;5225723;28;8814;-69
2022/03/12 14:57:43;;;;;;;;;94.00;74.75;;;;;;;;5226658;28;8789;-70
2022/03/12 15:00:16;;;;;;;;;90.50;69.25;;;;;;;;5219281;28;8806;-70
2022/03/12 15:03:03;;;;;;;;;93.50;74.75;;;;;;;;5225140;28;8859;-69
2022/03/12 15:05:38;;;;;;;;;99.00;76.00;;;;;;;;5198466;28;8802;-69
2022/03/12 15:08:10;;;;;;;;;90.50;71.50;;;;;;;;5209020;28;8800;-69
2022/03/12 15:10:42;;;;;;;;;96.50;76.50;;;;;;;;5225446;28;8790;-70